SGAS/ASU METAR and TAF weather

Enter ICAO airport designator
Station Type Date Time Source
SGAS METAR 2018/12/15 20:00 UTC NOAA

SGAS 152000Z 13008KT 080V180 9999 FEW033 30/22 Q1011


Station Type Date Time Source
SGAS Decoded METAR 2018/12/15 20:00 UTC NOAA

Asuncion / Aeropuerto, Paraguay (SGAS) 25-16S 057-38W 101M
Dec 15, 2018 - 03:00 PM EST / 2018.12.15 2000 UTC
Wind: from the SE (130 degrees) at 9 MPH (8 KT) (direction variable):0
Visibility: greater than 7 mile(s):0
Sky conditions: mostly clear
Temperature: 86 F (30 C)
Heat index: 91.8 F (33.2 C):1
Dew Point: 71 F (22 C)
Relative Humidity: 62%
Pressure (altimeter): 29.85 in. Hg (1011 hPa)
ob: SGAS 152000Z 13008KT 080V180 9999 FEW033 30/22 Q1011
cycle: 20

Station Type Date Time Source
SGAS TAF 2018/12/15 18:48 UTC NOAA

TAF TAF SGAS 151544Z 1518/1618 17015KT 9999 FEW033 OVC031 TX33/1519Z TN25/1610Z
BECMG 1519/1521 17007KT 9000 -TSRA BKN020 FEW040CB PROB40 1520/1522 8000 -RA BKN024
BECMG 05005KT 1600/1602 9999 SCT033
BECMG 1604/1607 00000KT CAVOK
BECMG 1610/1612 07006KT


Example: see airport list